Jon Santiago

Olheiro - Las Palmas
25 Nov 2027
Quinta-feira
Processo

Personalidade

Adaptabilidade (1) Ambição (16) Controvérsia (1) Lealdade (14) Pressão (3) Profissionalismo (11) Espírito Esportivo (10) Temperamento (9)

Perfil

Estilo de Treinamento Democrático
Licença Continental Pro
Determinação 13
Gestão de Pessoas 9
Motivação 6
Disciplina 4
Satisfação no Trabalho
53%
Fadiga
0%
Função Olheiro
Salário 21.2K p/s
Contrato 14.03.2029

Desempenho

Comportamento Bom
Eficácia do Treinamento
24%
Desenvolvimento do Jogador
20%
Prevenção de Lesões
60%
Implementação Tática
50%

Eventos Recentes

Participou de uma reunião de recrutamento agora
Recomendou um alvo de transferência agora
Recomendou um alvo de transferência agora
Recomendou um alvo de transferência agora
Recomendou um alvo de transferência 7d atrás
Recomendou um alvo de transferência 7d atrás
Recomendou um alvo de transferência 7d atrás
Observou uma partida 7d atrás

Monitorando agora

98
Jogador Clube Status Habilidade Confiança Observado Última observação Último voto
Mohamed Bolivar Barranquilla Ativo 94 / 100 40% 1 23.08.2027 -
Ignacio Fernández Boston River Ativo 89 / 95 40% 1 23.08.2027 -
Gift Udoh Ikorodu City Ativo 88 / 98 40% 1 17.08.2027 -
Eddy Kouadio Crotone Ativo 108 / 116 40% 1 17.08.2027 -
Agustín Obregón River Plate Ativo 108 / 126 40% 1 17.08.2027 -
Davide Bartesaghi AC Milan Ativo 135 / 137 40% 6 09.08.2027 -
Jan Bürger Gillingham Ativo 114 / 127 40% 4 09.08.2027 -
Kazunari Kita Real Sociedad Ativo 106 / 112 40% 2 19.07.2027 -
Izan Merino Málaga Ativo 129 / 129 40% 4 19.07.2027 -
David Valencia Alianza Petrolera Negociando 122 / 135 40% 1 19.07.2027 -
Josh King Chelsea Ativo 141 / 150 40% 3 28.06.2027 -
Ricky Atletico Venezuela Ativo 92 / 96 40% 1 28.06.2027 -
Gadiel Paoli River Plate Ativo 88 / 99 40% 1 28.06.2027 -
Pedro de la Vega FC Dallas Negociando 133 / 134 66% 1 01.06.2027 Aprovar
Konstantin Tyukavin Inter Ativo 132 / 133 66% 1 01.06.2027 Aprovar
Sampson Dweh Anderlecht Negociando 133 / 134 66% 1 01.06.2027 Aprovar
Martin Cedidla Spartak Moscow Ativo 131 / 132 66% 1 01.06.2027 Aprovar
Léo Scienza Southampton Ativo 136 / 136 66% 1 01.06.2027 Aprovar
Ramiro Buratti River Plate Ativo 96 / 106 40% 1 01.06.2027 -
Víctor Mollejo Burgos Ativo 122 / 120 40% 1 31.05.2027 -
Elijah Adebayo Luton Town Ativo 128 / 127 40% 1 31.05.2027 -
Morgan Whittaker Middlesbrough Ativo 128 / 135 40% 1 31.05.2027 -
Zane Albarus Cambridge United Ativo 91 / 100 40% 4 30.05.2027 -
Finley McAllister Grimsby Town Ativo 96 / 93 40% 1 30.05.2027 -
Yussif Saidu Zaragoza Ativo 121 / 131 40% 4 29.05.2027 -
José Pachuca Puebla Ativo 117 / 117 40% 6 28.05.2027 -
Keagan Tau Ajax Cape Town Ativo 102 / 106 40% 2 28.05.2027 -
Jon Garro Real Sociedad Ativo 91 / 88 40% 3 27.05.2027 -
Christos Mouzakitis Hull City Ativo 129 / 136 40% 6 26.05.2027 -
Jofre Torrents Ajax Ativo 120 / 128 40% 6 26.05.2027 -
Yusi Alavés Ativo 133 / 136 40% 2 21.05.2027 -
Dylan Lawlor Cardiff City Ativo 112 / 125 40% 1 21.05.2027 -
Ernie Weaver AFC Wimbledon Ativo 113 / 118 40% 7 20.05.2027 -
Joel McGregor Swindon Town Ativo 89 / 98 40% 2 20.05.2027 -
Riley Owen Trento Ativo 100 / 104 40% 5 18.05.2027 -
Sascha Britschgi Padova Negociando 124 / 125 40% 2 16.05.2027 -
João Teixeira Porto Ativo 109 / 119 40% 4 16.05.2027 -
Lucas Høgsberg RC Strasbourg Ativo 142 / 139 40% 2 16.05.2027 -
Kevin Vazquez Cruz Azul Ativo 132 / 149 40% 9 15.05.2027 -
Christ Inao Oulaï Fiorentina Ativo 131 / 143 40% 2 14.05.2027 -
Louis Leroux FC Nantes Ativo 127 / 124 40% 1 12.05.2027 -
Johan Manzambi Newcastle United Ativo 135 / 142 40% 1 12.05.2027 -
Pietro Reggiori Pro Patria Ativo 93 / 102 40% 3 10.05.2027 -
Darryl Bakola Padova Ativo 102 / 113 40% 1 05.05.2027 -
Matías Gómez Granada Ativo 118 / 115 40% 2 02.05.2027 -
Tiago Freitas Benfica Ativo 105 / 113 40% 2 29.04.2027 -
Toni Tamarit Alverca Ativo 115 / 122 40% 2 28.04.2027 -
Daniel Costa Sporting CP Ativo 94 / 104 40% 2 27.04.2027 -
Finn Jeltsch VfB Stuttgart Ativo 130 / 145 40% 2 27.04.2027 -
Cheveyo Tsawa Club Brugge Ativo 116 / 121 40% 3 22.04.2027 -
Noah Nartey Olympique Lyonnais Ativo 134 / 131 40% 1 21.04.2027 -
Juan Giménez Celta Ativo 114 / 124 40% 1 16.04.2027 -
Martim Cunha Porto Ativo 106 / 111 40% 2 15.04.2027 -
Caleb Yirenkyi Coventry City Ativo 141 / 140 40% 3 12.04.2027 -
Lucas Agazzi Defensor Sporting Ativo 114 / 137 40% 1 12.04.2027 -
Matvey Kislyak CSKA Moscow Ativo 139 / 133 40% 1 08.04.2027 -
James Dornelly Peterborough United Ativo 106 / 110 40% 3 05.04.2027 -
Bernardo Lima Porto Ativo 91 / 104 40% 1 02.04.2027 -
David Ozoh Derby County Ativo 118 / 128 40% 1 01.04.2027 -
Percy Jali Free State Stars Ativo 94 / 98 40% 2 28.03.2027 -
Ibrahim Maza Bayer Leverkusen Ativo 149 / 146 40% 1 27.03.2027 -
Gonçalo Oliveira Benfica Ativo 111 / 120 40% 1 18.03.2027 -
Guillaume Restes Toulouse FC Ativo 135 / 145 40% 1 12.01.2027 -
Agustín Albrini Independiente Rivadavia Ativo 91 / 101 40% 1 12.01.2027 -
Francisco Álvarez Argentinos Juniors Ativo 133 / 131 40% 2 09.12.2026 -
José Hurtado Bragantino Ativo 118 / 115 40% 1 09.12.2026 -
Aidan Morris Middlesbrough Ativo 128 / 129 40% 1 09.12.2026 -
Dara O'Shea Ipswich Town Ativo 133 / 137 40% 2 21.11.2026 -
Felipe Peña Biafore Lanús Ativo 126 / 135 40% 2 21.11.2026 -
Jesús Orozco Chiquete Cruz Azul Ativo 131 / 136 40% 2 21.11.2026 -
Santiago González Tigre Ativo 126 / 120 40% 2 18.11.2026 -
Welington Southampton Ativo 123 / 125 40% 1 18.11.2026 -
Joaquim Tigres Ativo 131 / 135 40% 3 10.11.2026 -
Alexis Gutiérrez Club America Ativo 133 / 125 40% 1 10.11.2026 -
Alejandro Francés Girona Ativo 125 / 136 40% 1 10.11.2026 -
Leandro Lozano Boca Juniors Ativo 124 / 119 40% 2 06.11.2026 -
Israel Reyes CSKA Moscow Ativo 146 / 128 40% 1 06.11.2026 -
Milan van Ewijk Mansfield Town Ativo 134 / 128 40% 1 05.11.2026 -
Víctor Chust Elche Ativo 137 / 127 40% 1 05.11.2026 -
Adalberto Carrasquilla Pumas UNAM Ativo 121 / 136 40% 3 03.11.2026 -
Matías Pérez Racing Club Ativo 131 / 115 40% 1 03.11.2026 -
Florentino Luís Ipswich Town Ativo 140 / 141 40% 1 12.10.2026 -
Ramón Juárez Club America Ativo 133 / 142 40% 1 12.10.2026 -
Federico Navarro Rosario Central Ativo 116 / 134 40% 1 10.10.2026 -
Ryan Sessegnon Fulham Ativo 151 / 144 40% 1 10.10.2026 -
Marco Pellegrino Boca Juniors Ativo 127 / 133 40% 1 09.10.2026 -
Fran Beltrán Girona Ativo 146 / 138 40% 1 07.10.2026 -
Lautaro Blanco Boca Juniors Ativo 131 / 124 40% 1 06.10.2026 -
Nazareno Colombo Racing Club Ativo 123 / 128 40% 1 06.10.2026 -
Flavien-Enzo Boyomo Osasuna Ativo 153 / 151 40% 1 05.10.2026 -
Andrés Gómez Vasco da Gama Ativo 138 / 142 40% 1 15.09.2026 -
Noah Sadiki Sunderland Ativo 134 / 146 40% 1 15.09.2026 -
Alan Lescano Argentinos Juniors Ativo 129 / 138 40% 1 14.09.2026 -
Rémi Lemoine Chamois Niortais Ativo 154 / 151 40% 1 14.09.2026 -
Marcel Ruiz RC Lens Ativo 145 / 135 40% 1 11.09.2026 -
Rico Lewis Manchester City Ativo 151 / 150 40% 1 07.09.2026 -
Christantus Uche Getafe Ativo 136 / 144 40% 1 07.09.2026 -
Jadon Sancho Manchester United Ativo 149 / 152 40% 1 07.09.2026 -